Time;durP1;ratioP1;P1;durP2;ratioP2;P2;SDS_P1;SDS_P2;PMS_P1;PMS_P2;Temp;Humidity;BMP_temperature;BMP_pressure;BME280_temperature;BME280_humidity;BME280_pressure;Samples;Min_cycle;Max_cycle;Signal;HPM_P1;HPM_P2
2021/10/20 00:00:09;;;;;;;6.43;3.35;;;14.20;99.90;;;;;;5112144;27;20043;-80
2021/10/20 00:02:41;;;;;;;5.05;4.53;;;14.10;99.90;;;;;;5113394;27;20484;-80
2021/10/20 00:05:08;;;;;;;5.95;3.53;;;14.10;99.90;;;;;;5102429;27;20046;-84
2021/10/20 00:07:34;;;;;;;4.65;3.95;;;14.10;99.90;;;;;;5108805;27;20031;-80
2021/10/20 00:10:00;;;;;;;7.78;5.93;;;14.10;99.90;;;;;;5111293;27;20038;-79
2021/10/20 00:12:27;;;;;;;6.22;4.68;;;14.10;99.90;;;;;;5058788;27;20406;-79
2021/10/20 00:14:53;;;;;;;5.85;4.55;;;14.10;99.90;;;;;;5078384;27;20035;-79
2021/10/20 00:17:20;;;;;;;7.20;4.60;;;14.10;99.90;;;;;;5113476;27;20044;-80
2021/10/20 00:19:49;;;;;;;5.55;3.90;;;14.10;99.90;;;;;;5115402;27;20042;-78
2021/10/20 00:22:15;;;;;;;4.57;4.18;;;14.10;99.90;;;;;;5077571;27;20043;-81
2021/10/20 00:24:42;;;;;;;4.57;3.85;;;14.00;99.90;;;;;;5094030;27;20032;-80
2021/10/20 00:27:09;;;;;;;5.70;3.70;;;14.10;99.90;;;;;;5127884;27;20038;-80
2021/10/20 00:29:35;;;;;;;4.20;3.25;;;14.10;99.90;;;;;;5124999;27;20034;-80
2021/10/20 00:32:02;;;;;;;5.45;4.07;;;14.00;99.90;;;;;;5114255;27;20031;-75
2021/10/20 00:34:28;;;;;;;3.42;2.88;;;14.00;99.90;;;;;;5096500;27;20049;-75
2021/10/20 00:36:55;;;;;;;5.78;3.13;;;14.00;99.90;;;;;;5094670;27;20043;-75
2021/10/20 00:39:21;;;;;;;5.15;3.55;;;14.00;99.90;;;;;;5112348;27;20031;-75
2021/10/20 00:41:52;;;;;;;6.38;3.70;;;13.90;99.90;;;;;;5111021;27;20043;-75
2021/10/20 00:44:19;;;;;;;6.45;3.65;;;13.90;99.90;;;;;;5110442;27;20032;-75
2021/10/20 00:46:45;;;;;;;5.07;3.10;;;13.90;99.90;;;;;;5127554;27;20070;-75
2021/10/20 00:49:12;;;;;;;4.40;3.20;;;13.90;99.90;;;;;;5126231;27;20031;-75
2021/10/20 00:51:39;;;;;;;5.22;3.63;;;13.90;99.90;;;;;;5108705;27;20039;-75
2021/10/20 00:54:05;;;;;;;4.53;3.70;;;13.80;99.90;;;;;;5093648;27;20042;-75
2021/10/20 00:56:32;;;;;;;6.32;3.50;;;13.90;99.90;;;;;;5126819;27;20050;-75
2021/10/20 00:58:58;;;;;;;6.25;3.92;;;13.90;99.90;;;;;;5095875;27;20039;-75
2021/10/20 01:01:25;;;;;;;4.07;3.33;;;13.90;99.90;;;;;;5125413;27;20050;-75
2021/10/20 01:03:51;;;;;;;3.67;3.38;;;13.90;99.90;;;;;;5126188;27;20372;-75
2021/10/20 01:06:18;;;;;;;5.82;3.25;;;13.90;99.90;;;;;;5103703;27;20055;-75
2021/10/20 01:08:44;;;;;;;5.38;3.80;;;13.90;99.90;;;;;;5093986;28;20032;-75
2021/10/20 01:11:11;;;;;;;5.97;3.13;;;13.90;99.90;;;;;;5058002;28;20375;-75
2021/10/20 01:13:38;;;;;;;6.13;3.50;;;13.90;99.90;;;;;;5085850;28;20489;-75
2021/10/20 01:16:05;;;;;;;4.95;3.30;;;13.90;99.90;;;;;;5087914;28;20407;-80
2021/10/20 01:18:31;;;;;;;4.65;3.50;;;13.90;99.90;;;;;;5070524;28;20056;-80
2021/10/20 01:21:00;;;;;;;5.03;3.33;;;14.00;99.90;;;;;;5095334;28;20408;-80
2021/10/20 01:23:28;;;;;;;4.28;2.90;;;14.00;99.90;;;;;;5070861;28;20036;-80
2021/10/20 01:25:55;;;;;;;6.13;3.78;;;14.10;99.90;;;;;;5088295;28;20028;-80
2021/10/20 01:28:22;;;;;;;5.63;3.28;;;14.10;99.90;;;;;;5089405;28;20047;-80
2021/10/20 01:30:48;;;;;;;4.65;3.30;;;14.10;99.90;;;;;;5085488;28;20036;-81
2021/10/20 01:33:15;;;;;;;4.10;3.70;;;14.10;99.90;;;;;;5084380;28;20038;-80
2021/10/20 01:35:41;;;;;;;3.70;3.20;;;14.10;99.90;;;;;;5087003;28;20520;-80
2021/10/20 01:38:07;;;;;;;6.38;3.50;;;14.10;99.90;;;;;;5091374;28;20511;-80
2021/10/20 01:40:34;;;;;;;6.07;3.88;;;14.20;99.90;;;;;;5067973;28;20820;-81
2021/10/20 01:43:00;;;;;;;4.15;3.30;;;14.20;99.90;;;;;;5088028;28;20035;-80
2021/10/20 01:45:27;;;;;;;4.57;3.72;;;14.30;99.90;;;;;;5085992;28;20039;-80
2021/10/20 01:47:53;;;;;;;5.07;3.20;;;14.40;99.90;;;;;;5106244;28;20020;-80
2021/10/20 01:50:19;;;;;;;7.85;4.30;;;14.40;99.90;;;;;;5059552;28;20048;-80
2021/10/20 01:52:46;;;;;;;4.55;3.85;;;14.40;99.90;;;;;;5070137;28;20040;-80
2021/10/20 01:55:15;;;;;;;6.28;3.22;;;14.50;99.90;;;;;;5096018;28;20051;-80
2021/10/20 01:57:43;;;;;;;3.95;3.38;;;14.50;99.90;;;;;;5092518;28;20345;-80
2021/10/20 02:00:10;;;;;;;4.65;3.38;;;14.50;99.90;;;;;;5096292;28;20035;-80
2021/10/20 02:02:41;;;;;;;4.60;3.72;;;14.50;99.90;;;;;;5058204;28;20028;-80
2021/10/20 02:05:09;;;;;;;4.57;3.38;;;14.60;99.90;;;;;;5098018;27;20039;-80
2021/10/20 02:07:36;;;;;;;5.20;3.65;;;14.60;99.90;;;;;;5125118;27;20532;-80
2021/10/20 02:10:09;;;;;;;4.65;3.60;;;14.60;99.90;;;;;;5107851;27;20437;-80
2021/10/20 02:12:36;;;;;;;5.13;3.33;;;14.60;99.90;;;;;;5118530;27;20857;-80
2021/10/20 02:15:03;;;;;;;5.60;3.08;;;14.60;99.90;;;;;;5094678;27;20031;-80
2021/10/20 02:17:30;;;;;;;8.57;3.80;;;14.60;99.90;;;;;;5089913;27;20046;-81
2021/10/20 02:19:56;;;;;;;5.80;3.45;;;14.60;99.90;;;;;;5106000;27;20028;-81
2021/10/20 02:22:23;;;;;;;6.45;3.45;;;14.70;99.90;;;;;;5107252;27;20031;-80
2021/10/20 02:24:49;;;;;;;3.95;3.13;;;14.70;99.90;;;;;;5091569;27;20043;-75
2021/10/20 02:27:16;;;;;;;4.13;3.33;;;14.60;99.90;;;;;;5108041;27;20479;-76
2021/10/20 02:29:42;;;;;;;4.35;2.80;;;14.70;99.90;;;;;;5090409;27;20039;-81
2021/10/20 02:32:08;;;;;;;4.60;2.83;;;14.70;99.90;;;;;;5086832;27;20054;-80
2021/10/20 02:34:35;;;;;;;6.75;2.47;;;14.70;99.90;;;;;;5108068;27;20039;-80
2021/10/20 02:37:01;;;;;;;6.57;3.20;;;14.70;99.90;;;;;;5109054;28;20070;-80
2021/10/20 02:39:28;;;;;;;3.83;2.65;;;14.70;99.90;;;;;;5091491;28;20044;-81
2021/10/20 02:41:55;;;;;;;5.90;3.30;;;14.70;99.90;;;;;;5114451;27;20039;-81
2021/10/20 02:44:21;;;;;;;4.80;2.53;;;14.70;99.90;;;;;;5121848;27;20030;-80
2021/10/20 02:46:47;;;;;;;5.57;3.08;;;14.70;99.90;;;;;;5110382;27;20040;-80
2021/10/20 02:49:14;;;;;;;5.00;2.50;;;14.60;99.90;;;;;;5109142;27;20035;-80
2021/10/20 02:51:40;;;;;;;4.63;3.05;;;14.60;99.90;;;;;;5121316;27;20050;-80
2021/10/20 02:54:07;;;;;;;7.45;2.80;;;14.60;99.90;;;;;;5108011;27;20039;-81
2021/10/20 02:56:33;;;;;;;4.13;2.92;;;14.60;99.90;;;;;;5094424;28;20055;-81
2021/10/20 02:58:59;;;;;;;4.20;3.08;;;14.60;99.90;;;;;;5135456;27;20026;-81
2021/10/20 03:01:26;;;;;;;6.60;2.85;;;14.50;99.90;;;;;;5060416;27;20047;-80
2021/10/20 03:03:52;;;;;;;6.85;3.25;;;14.50;99.90;;;;;;5125927;27;20028;-81
2021/10/20 03:06:19;;;;;;;4.97;3.83;;;14.50;99.90;;;;;;5091704;27;20052;-80
2021/10/20 03:08:46;;;;;;;6.25;3.20;;;14.50;99.90;;;;;;5124125;27;20035;-80
2021/10/20 03:11:12;;;;;;;7.97;3.33;;;14.60;99.90;;;;;;5115835;27;20034;-80
2021/10/20 03:13:39;;;;;;;4.50;2.90;;;14.50;99.90;;;;;;5116675;27;20048;-80
2021/10/20 03:16:06;;;;;;;3.95;2.78;;;14.50;99.90;;;;;;5091546;27;20781;-80
2021/10/20 03:18:33;;;;;;;6.18;3.72;;;14.50;99.90;;;;;;5113622;27;20030;-80
2021/10/20 03:21:00;;;;;;;2.65;2.35;;;14.50;99.90;;;;;;5124947;27;20027;-80
2021/10/20 03:23:26;;;;;;;5.15;2.80;;;14.60;99.90;;;;;;5119893;27;20046;-81
2021/10/20 03:25:53;;;;;;;3.75;3.15;;;14.50;99.90;;;;;;5117987;27;20494;-80
2021/10/20 03:28:19;;;;;;;5.00;3.70;;;14.50;99.90;;;;;;5117290;27;20459;-81
2021/10/20 03:30:46;;;;;;;9.73;3.60;;;14.50;99.90;;;;;;5111116;27;20771;-80
2021/10/20 03:33:12;;;;;;;5.60;3.90;;;14.50;99.90;;;;;;5098475;27;20400;-81
2021/10/20 03:35:38;;;;;;;3.85;2.92;;;14.50;99.90;;;;;;5114691;27;20836;-81
2021/10/20 03:38:06;;;;;;;5.22;3.47;;;14.50;99.90;;;;;;5095611;27;20046;-80
2021/10/20 03:40:36;;;;;;;5.00;3.58;;;14.60;99.90;;;;;;5094102;27;20514;-81
2021/10/20 03:43:03;;;;;;;6.20;3.92;;;14.60;99.90;;;;;;5126675;27;20039;-80
2021/10/20 03:45:29;;;;;;;5.03;3.67;;;14.50;99.90;;;;;;5115737;27;20051;-81
2021/10/20 03:47:56;;;;;;;4.75;3.90;;;14.60;99.90;;;;;;5103954;27;20041;-80
2021/10/20 03:50:23;;;;;;;6.70;3.90;;;14.60;99.90;;;;;;5131425;27;20034;-81
2021/10/20 03:52:50;;;;;;;7.88;3.90;;;14.60;99.90;;;;;;5095892;27;20062;-80
2021/10/20 03:55:16;;;;;;;7.63;4.05;;;14.50;99.90;;;;;;5097597;27;20483;-80
2021/10/20 03:57:43;;;;;;;6.60;4.20;;;14.60;99.90;;;;;;5124198;27;20026;-80
2021/10/20 04:00:12;;;;;;;5.65;3.80;;;14.60;99.90;;;;;;5125163;27;20035;-81
2021/10/20 04:02:43;;;;;;;5.68;4.32;;;14.60;99.90;;;;;;5111380;27;20043;-80
2021/10/20 04:05:17;;;;;;;5.10;4.40;;;14.60;99.90;;;;;;5083223;27;20608;-80
2021/10/20 04:07:46;;;;;;;5.15;4.13;;;14.60;99.90;;;;;;5095195;27;20027;-80
2021/10/20 04:10:18;;;;;;;6.75;4.50;;;14.70;99.90;;;;;;5100359;27;20035;-80
2021/10/20 04:12:45;;;;;;;5.95;4.60;;;14.70;99.90;;;;;;5103570;27;20510;-80
2021/10/20 04:15:14;;;;;;;5.90;4.32;;;14.70;99.90;;;;;;5114150;27;20043;-80
2021/10/20 04:17:40;;;;;;;5.40;4.20;;;14.70;99.90;;;;;;5113670;27;20039;-80
2021/10/20 04:20:13;;;;;;;6.15;4.18;;;14.70;99.90;;;;;;5097950;27;20039;-81
2021/10/20 04:22:41;;;;;;;3.92;3.50;;;14.60;99.90;;;;;;5080366;27;20135;-80
2021/10/20 04:25:09;;;;;;;5.32;3.58;;;14.70;99.90;;;;;;5095905;27;20035;-81
2021/10/20 04:27:36;;;;;;;5.50;3.83;;;14.70;99.90;;;;;;5112892;27;20058;-79
2021/10/20 04:30:07;;;;;;;6.53;4.20;;;14.70;99.90;;;;;;5130537;27;20032;-81
2021/10/20 04:32:37;;;;;;;4.28;3.88;;;14.60;99.90;;;;;;5123526;27;20038;-80
2021/10/20 04:35:04;;;;;;;8.00;4.30;;;14.70;99.90;;;;;;5116260;27;20031;-80
2021/10/20 04:37:31;;;;;;;6.15;4.03;;;14.60;99.90;;;;;;5128720;27;20503;-81
2021/10/20 04:39:59;;;;;;;4.25;3.63;;;14.60;99.90;;;;;;5097253;27;20063;-80
2021/10/20 04:42:27;;;;;;;4.45;3.78;;;14.70;99.90;;;;;;5123222;27;20050;-80
2021/10/20 04:44:54;;;;;;;5.10;3.58;;;14.70;99.90;;;;;;5097497;27;20046;-80
2021/10/20 04:47:21;;;;;;;4.15;3.55;;;14.80;99.90;;;;;;5125828;27;20026;-80
2021/10/20 04:49:48;;;;;;;6.20;3.70;;;14.80;99.90;;;;;;5111538;27;20379;-80
2021/10/20 04:52:16;;;;;;;6.15;4.03;;;14.80;99.90;;;;;;5092844;27;20487;-81
2021/10/20 04:54:42;;;;;;;6.40;3.60;;;14.80;99.90;;;;;;5100717;27;20038;-81
2021/10/20 04:57:09;;;;;;;9.40;4.15;;;14.90;99.90;;;;;;5125916;27;20800;-80
2021/10/20 04:59:36;;;;;;;4.65;3.85;;;15.00;99.90;;;;;;5114030;27;20031;-80
2021/10/20 05:02:02;;;;;;;5.25;4.20;;;15.00;99.90;;;;;;5108892;27;20043;-80
2021/10/20 05:04:29;;;;;;;5.80;3.83;;;15.00;99.90;;;;;;5115598;27;20047;-80
2021/10/20 05:06:56;;;;;;;5.63;3.75;;;15.10;99.90;;;;;;5113065;27;20396;-80
2021/10/20 05:09:23;;;;;;;5.55;3.83;;;15.10;99.90;;;;;;5113036;27;20019;-80
2021/10/20 05:11:50;;;;;;;5.47;4.20;;;15.10;99.90;;;;;;5106363;28;20062;-80
2021/10/20 05:14:17;;;;;;;5.78;4.32;;;15.10;99.90;;;;;;5110408;27;20044;-79
2021/10/20 05:16:43;;;;;;;9.50;5.85;;;15.10;99.90;;;;;;5093677;27;20051;-79
2021/10/20 05:19:10;;;;;;;8.88;6.95;;;15.00;99.90;;;;;;5089953;27;20043;-79
2021/10/20 05:21:37;;;;;;;7.97;6.40;;;15.00;99.90;;;;;;5092478;27;20042;-74
2021/10/20 05:24:03;;;;;;;8.57;5.63;;;15.00;99.90;;;;;;5086111;27;20153;-74
2021/10/20 05:26:30;;;;;;;6.85;5.57;;;15.00;99.90;;;;;;5094094;27;20035;-74
2021/10/20 05:28:56;;;;;;;6.78;4.68;;;15.10;99.90;;;;;;5110161;27;20038;-75
2021/10/20 05:31:23;;;;;;;5.28;4.28;;;15.00;99.90;;;;;;5095508;27;20042;-74
2021/10/20 05:33:49;;;;;;;8.52;5.43;;;15.00;99.90;;;;;;5108629;27;20040;-74
2021/10/20 05:36:15;;;;;;;9.05;4.90;;;15.00;99.90;;;;;;5109829;27;20063;-74
2021/10/20 05:38:42;;;;;;;6.63;5.15;;;14.90;99.90;;;;;;5091012;27;20040;-75
2021/10/20 05:41:08;;;;;;;7.15;5.05;;;14.90;99.90;;;;;;5094149;27;20055;-75
2021/10/20 05:43:35;;;;;;;5.45;4.15;;;14.90;99.90;;;;;;5105676;27;20035;-74
2021/10/20 05:46:01;;;;;;;5.20;4.53;;;14.90;99.90;;;;;;5066749;27;20781;-74
2021/10/20 05:48:28;;;;;;;6.47;4.50;;;14.90;99.90;;;;;;5077808;27;20038;-73
2021/10/20 05:50:54;;;;;;;5.55;4.07;;;14.90;99.90;;;;;;5126760;27;20121;-74
2021/10/20 05:53:21;;;;;;;6.93;4.78;;;14.80;99.90;;;;;;5091773;27;20039;-74
2021/10/20 05:55:47;;;;;;;11.32;8.55;;;14.80;99.90;;;;;;5127650;27;20035;-74
2021/10/20 05:58:14;;;;;;;7.28;5.55;;;14.80;99.90;;;;;;5110941;27;20043;-75
2021/10/20 06:00:41;;;;;;;8.00;5.70;;;14.90;99.90;;;;;;5109420;27;20031;-74
2021/10/20 06:03:08;;;;;;;6.70;5.18;;;14.90;99.90;;;;;;5123802;27;20036;-74
2021/10/20 06:05:36;;;;;;;5.53;4.40;;;14.90;99.90;;;;;;5092909;27;20055;-75
2021/10/20 06:08:02;;;;;;;6.60;5.10;;;14.90;99.90;;;;;;5111763;27;20036;-74
2021/10/20 06:10:29;;;;;;;6.72;4.95;;;14.90;99.90;;;;;;5119677;27;20843;-74
2021/10/20 06:12:56;;;;;;;6.50;5.82;;;15.00;99.90;;;;;;5124630;27;20030;-74
2021/10/20 06:15:24;;;;;;;9.75;5.65;;;15.00;99.90;;;;;;5108359;27;20039;-74
2021/10/20 06:17:51;;;;;;;12.10;4.85;;;15.10;99.90;;;;;;5110065;27;20046;-74
2021/10/20 06:20:17;;;;;;;5.82;4.40;;;15.10;99.90;;;;;;5104422;28;20109;-74
2021/10/20 06:22:44;;;;;;;5.22;3.92;;;15.10;99.90;;;;;;5105798;27;20396;-73
2021/10/20 06:25:12;;;;;;;7.53;4.32;;;15.20;99.90;;;;;;5118943;27;20043;-74
2021/10/20 06:27:40;;;;;;;5.28;4.28;;;15.20;99.90;;;;;;5105996;27;20035;-74
2021/10/20 06:30:07;;;;;;;5.38;4.22;;;15.20;99.90;;;;;;5091443;27;20038;-72
2021/10/20 06:32:34;;;;;;;5.40;4.72;;;15.30;99.90;;;;;;5090664;27;20391;-74
2021/10/20 06:35:01;;;;;;;7.15;5.00;;;15.20;99.90;;;;;;5118211;27;20496;-74
2021/10/20 06:37:30;;;;;;;7.22;4.35;;;15.30;99.90;;;;;;5121843;27;20040;-74
2021/10/20 06:40:00;;;;;;;5.45;4.88;;;15.30;99.90;;;;;;5090431;27;20031;-74
2021/10/20 06:42:28;;;;;;;8.25;4.13;;;15.40;99.90;;;;;;5110193;27;20735;-74
2021/10/20 06:44:56;;;;;;;5.63;4.07;;;15.30;99.90;;;;;;5108121;27;20503;-75
2021/10/20 06:47:25;;;;;;;7.35;4.78;;;15.40;99.90;;;;;;5093837;27;20043;-75
2021/10/20 06:49:52;;;;;;;9.30;5.45;;;15.40;99.90;;;;;;5113895;27;20038;-73
2021/10/20 06:52:19;;;;;;;7.03;4.50;;;15.40;99.90;;;;;;5110253;27;20035;-75
2021/10/20 06:54:46;;;;;;;8.63;4.78;;;15.50;99.90;;;;;;5119875;27;20031;-74
2021/10/20 06:57:12;;;;;;;7.40;3.80;;;15.50;99.90;;;;;;5092907;27;20042;-74
2021/10/20 06:59:41;;;;;;;6.90;4.85;;;15.50;99.90;;;;;;5092385;27;20039;-74
2021/10/20 07:02:07;;;;;;;6.28;4.75;;;15.50;99.90;;;;;;5077858;27;20039;-74
2021/10/20 07:04:33;;;;;;;6.28;4.55;;;15.50;99.90;;;;;;5115692;27;20138;-74
2021/10/20 07:07:00;;;;;;;4.88;4.25;;;15.50;99.90;;;;;;5112905;27;20051;-74
2021/10/20 07:09:26;;;;;;;7.65;4.40;;;15.50;99.90;;;;;;5110624;27;20031;-77
2021/10/20 07:11:53;;;;;;;6.07;4.05;;;15.50;99.90;;;;;;5077495;27;20032;-75
2021/10/20 07:14:19;;;;;;;5.78;3.88;;;15.50;99.90;;;;;;5106212;27;20506;-73
2021/10/20 07:16:45;;;;;;;4.97;4.28;;;15.60;99.90;;;;;;5111566;27;20047;-74
2021/10/20 07:19:12;;;;;;;8.20;4.82;;;15.60;99.90;;;;;;5112070;27;20043;-75
2021/10/20 07:21:38;;;;;;;5.03;3.80;;;15.60;99.90;;;;;;5109242;27;20047;-74
2021/10/20 07:24:05;;;;;;;5.15;3.92;;;15.60;99.90;;;;;;5108775;27;20031;-74
2021/10/20 07:26:31;;;;;;;6.30;4.53;;;15.70;99.90;;;;;;5098199;27;20046;-74
2021/10/20 07:28:58;;;;;;;6.07;4.63;;;15.70;99.90;;;;;;5112227;27;20030;-78
2021/10/20 07:31:29;;;;;;;4.82;4.15;;;15.70;99.90;;;;;;5114242;27;20035;-76
2021/10/20 07:33:57;;;;;;;6.65;4.70;;;15.80;99.90;;;;;;5080314;27;20039;-75
2021/10/20 07:36:24;;;;;;;6.78;4.65;;;15.90;99.90;;;;;;5121938;27;20741;-75
2021/10/20 07:38:51;;;;;;;9.98;4.90;;;16.00;99.90;;;;;;5109014;27;20412;-72
2021/10/20 07:41:18;;;;;;;5.72;4.13;;;16.10;99.90;;;;;;5123358;27;20047;-74
2021/10/20 07:43:45;;;;;;;5.55;4.32;;;16.10;99.90;;;;;;5107166;27;20397;-74
2021/10/20 07:46:11;;;;;;;6.43;4.55;;;16.10;99.90;;;;;;5106832;27;20031;-74
2021/10/20 07:48:38;;;;;;;6.70;4.07;;;16.10;99.90;;;;;;5110933;27;20031;-74
2021/10/20 07:51:04;;;;;;;4.47;4.03;;;16.00;99.90;;;;;;5092603;27;20031;-75
2021/10/20 07:53:31;;;;;;;7.32;4.32;;;16.00;99.90;;;;;;5110711;27;20039;-75
2021/10/20 07:55:57;;;;;;;4.70;4.15;;;16.00;99.90;;;;;;5106787;27;20376;-73
2021/10/20 07:58:24;;;;;;;6.40;3.78;;;16.00;99.90;;;;;;5119184;27;20045;-73
2021/10/20 08:00:50;;;;;;;6.45;4.30;;;16.10;99.90;;;;;;5117010;27;20040;-73
2021/10/20 08:03:17;;;;;;;6.78;5.18;;;16.00;99.90;;;;;;5091273;27;20138;-73
2021/10/20 08:05:43;;;;;;;8.77;4.35;;;16.00;99.90;;;;;;5107539;27;20056;-73
2021/10/20 08:08:10;;;;;;;5.95;4.55;;;15.90;99.90;;;;;;5106570;28;20454;-73
2021/10/20 08:10:40;;;;;;;6.50;4.40;;;15.90;99.90;;;;;;5087648;28;20400;-73
2021/10/20 08:13:06;;;;;;;5.70;4.25;;;15.80;99.90;;;;;;5079433;28;20055;-73
2021/10/20 08:15:34;;;;;;;5.35;4.85;;;15.80;99.90;;;;;;5103912;28;20044;-72
2021/10/20 08:18:03;;;;;;;5.60;4.50;;;15.70;99.90;;;;;;5104237;28;20047;-73
2021/10/20 08:20:32;;;;;;;4.82;4.35;;;15.80;99.90;;;;;;5104535;28;20043;-73
2021/10/20 08:23:03;;;;;;;6.45;4.32;;;15.80;99.90;;;;;;5106580;28;20478;-73
2021/10/20 08:25:34;;;;;;;5.40;4.55;;;15.80;99.90;;;;;;5117003;27;20031;-73
2021/10/20 08:28:01;;;;;;;7.18;5.03;;;15.80;99.90;;;;;;5093375;27;20443;-73
2021/10/20 08:30:27;;;;;;;6.22;5.13;;;15.80;99.90;;;;;;5102428;28;20039;-73
2021/10/20 08:32:56;;;;;;;7.38;5.32;;;15.90;99.90;;;;;;5070863;28;20043;-73
2021/10/20 08:35:22;;;;;;;6.10;4.97;;;15.90;99.90;;;;;;5099976;28;20035;-73
2021/10/20 08:37:56;;;;;;;9.93;4.68;;;15.90;99.90;;;;;;5104929;28;20043;-73
2021/10/20 08:40:25;;;;;;;4.93;4.43;;;15.90;99.90;;;;;;5102646;28;20040;-73
2021/10/20 08:42:53;;;;;;;7.22;5.20;;;15.90;99.90;;;;;;5071463;28;20488;-73
2021/10/20 08:45:20;;;;;;;6.32;5.20;;;15.90;99.90;;;;;;5104167;28;20031;-74
2021/10/20 08:47:48;;;;;;;5.40;4.85;;;16.00;99.90;;;;;;5105447;28;20085;-73
2021/10/20 08:50:22;;;;;;;7.78;6.03;;;16.10;99.90;;;;;;5103242;28;20055;-72
2021/10/20 08:52:50;;;;;;;6.57;5.70;;;16.10;99.90;;;;;;5104806;28;20035;-79
2021/10/20 08:55:18;;;;;;;8.60;5.50;;;16.10;99.90;;;;;;5087652;28;20036;-78
2021/10/20 08:57:45;;;;;;;6.88;5.32;;;16.30;99.90;;;;;;5105783;28;20043;-79
2021/10/20 09:00:13;;;;;;;7.63;6.07;;;16.40;99.90;;;;;;5105182;28;20043;-79
2021/10/20 09:02:41;;;;;;;9.02;5.30;;;16.50;99.90;;;;;;5103657;28;20045;-79
2021/10/20 09:05:12;;;;;;;6.90;5.43;;;16.60;99.90;;;;;;5076042;27;20036;-78
2021/10/20 09:07:44;;;;;;;7.20;5.47;;;16.70;99.90;;;;;;5123284;27;20038;-78
2021/10/20 09:10:12;;;;;;;9.32;6.25;;;16.90;99.90;;;;;;5122720;27;20035;-80
2021/10/20 09:12:40;;;;;;;9.40;7.28;;;17.00;99.90;;;;;;5114066;27;20038;-78
2021/10/20 09:15:10;;;;;;;7.43;5.72;;;17.10;99.90;;;;;;5119262;27;20035;-78
2021/10/20 09:17:48;;;;;;;14.05;6.63;;;17.20;99.90;;;;;;5111654;27;20049;-78
2021/10/20 09:20:18;;;;;;;9.48;6.55;;;17.20;99.90;;;;;;5118418;27;20051;-79
2021/10/20 09:23:06;;;;;;;7.85;6.35;;;17.20;99.90;;;;;;5091049;27;20051;-80
2021/10/20 09:25:42;;;;;;;8.10;6.15;;;17.10;99.90;;;;;;5119980;27;20042;-79
2021/10/20 09:28:19;;;;;;;7.03;5.78;;;17.00;99.90;;;;;;5110681;27;20043;-80
2021/10/20 09:30:45;;;;;;;9.48;6.90;;;17.00;99.90;;;;;;5115842;27;20038;-79
2021/10/20 09:33:12;;;;;;;8.48;5.97;;;16.90;99.90;;;;;;5119684;27;20043;-80
2021/10/20 09:35:39;;;;;;;7.70;5.95;;;16.90;99.90;;;;;;5074363;27;20055;-80
2021/10/20 09:38:07;;;;;;;10.18;5.70;;;17.00;99.90;;;;;;5120026;27;20039;-79
2021/10/20 09:40:46;;;;;;;7.28;5.78;;;17.00;99.90;;;;;;5122621;27;20039;-75
2021/10/20 09:43:18;;;;;;;5.78;4.90;;;17.10;99.90;;;;;;5106622;27;20065;-74
2021/10/20 09:45:46;;;;;;;7.88;5.43;;;17.10;99.90;;;;;;5115719;27;20036;-73
2021/10/20 09:48:22;;;;;;;9.07;5.65;;;17.10;99.90;;;;;;5109626;27;20034;-74
2021/10/20 09:51:03;;;;;;;11.05;6.20;;;17.10;99.90;;;;;;5123918;27;20026;-73
2021/10/20 09:53:32;;;;;;;8.40;5.50;;;17.20;99.90;;;;;;5116814;27;20384;-74
2021/10/20 09:56:01;;;;;;;7.72;6.50;;;17.20;99.90;;;;;;5122352;27;20377;-74
2021/10/20 09:58:31;;;;;;;9.02;5.30;;;17.20;99.90;;;;;;5120762;27;20043;-73
2021/10/20 10:00:59;;;;;;;8.18;6.07;;;17.20;99.90;;;;;;5105971;27;20032;-73
2021/10/20 10:03:26;;;;;;;7.55;5.82;;;17.30;99.90;;;;;;5117441;27;20031;-74
2021/10/20 10:05:53;;;;;;;6.38;5.50;;;17.40;99.90;;;;;;5121580;27;20053;-74
2021/10/20 10:08:19;;;;;;;7.57;5.82;;;17.40;99.90;;;;;;5090009;27;20043;-73
2021/10/20 10:10:46;;;;;;;6.53;5.82;;;17.40;99.90;;;;;;5105306;27;20038;-80
2021/10/20 10:13:20;;;;;;;8.18;5.60;;;17.50;99.90;;;;;;5117302;27;20046;-80
2021/10/20 10:15:48;;;;;;;10.18;6.53;;;17.70;99.90;;;;;;5110476;27;20686;-80
2021/10/20 10:18:15;;;;;;;7.57;5.65;;;17.90;99.90;;;;;;5092174;27;20043;-80
2021/10/20 10:20:44;;;;;;;10.88;6.43;;;18.10;99.90;;;;;;5105530;28;20376;-80
2021/10/20 10:23:40;;;;;;;7.85;5.88;;;18.10;99.90;;;;;;5117971;27;20038;-80
2021/10/20 10:26:06;;;;;;;7.28;5.35;;;18.10;99.90;;;;;;5107110;28;20047;-80
2021/10/20 10:28:35;;;;;;;5.28;4.78;;;18.00;99.90;;;;;;5107949;27;20046;-80
2021/10/20 10:31:11;;;;;;;6.95;5.40;;;17.90;99.90;;;;;;5130120;27;20784;-80
2021/10/20 10:33:52;;;;;;;6.90;5.97;;;17.80;99.90;;;;;;5113411;27;20492;-81
2021/10/20 10:36:24;;;;;;;7.70;5.47;;;17.70;99.90;;;;;;5125049;27;20384;-81
2021/10/20 10:38:59;;;;;;;6.90;5.47;;;17.60;99.90;;;;;;5125050;27;20042;-81
2021/10/20 10:41:49;;;;;;;9.65;5.95;;;17.50;99.90;;;;;;5105035;27;20047;-81
2021/10/20 10:44:17;;;;;;;6.22;5.13;;;17.50;99.90;;;;;;5117900;27;20032;-81
2021/10/20 10:46:51;;;;;;;8.93;8.02;;;17.50;99.90;;;;;;5122311;27;20035;-82
2021/10/20 10:49:24;;;;;;;8.93;6.13;;;17.40;99.90;;;;;;5118149;27;20038;-80
2021/10/20 10:52:03;;;;;;;11.20;6.45;;;17.40;99.90;;;;;;5121924;27;20035;-78
2021/10/20 10:54:38;;;;;;;10.35;7.13;;;17.50;99.90;;;;;;5118444;27;20028;-80
2021/10/20 10:57:14;;;;;;;6.40;5.18;;;17.50;99.90;;;;;;5077218;27;20034;-83
2021/10/20 10:59:54;;;;;;;6.68;5.60;;;17.60;99.90;;;;;;5107733;27;20028;-81
2021/10/20 11:02:44;;;;;;;7.57;5.50;;;17.60;99.90;;;;;;5098906;27;20738;-81
2021/10/20 11:05:10;;;;;;;7.28;5.18;;;17.60;99.90;;;;;;5092086;27;20047;-82
2021/10/20 11:07:37;;;;;;;9.90;7.57;;;17.50;99.90;;;;;;5130646;27;20475;-75
2021/10/20 11:10:07;;;;;;;5.28;4.78;;;17.50;99.90;;;;;;5124248;27;20042;-75
2021/10/20 11:12:33;;;;;;;6.32;5.50;;;17.50;99.90;;;;;;5121156;27;20081;-75
2021/10/20 11:15:00;;;;;;;5.93;5.32;;;17.60;99.90;;;;;;5091185;28;20042;-75
2021/10/20 11:17:27;;;;;;;7.32;4.93;;;17.50;99.90;;;;;;5090181;27;20039;-75
2021/10/20 11:19:53;;;;;;;6.32;4.47;;;17.50;99.90;;;;;;5110123;27;20403;-75
2021/10/20 11:22:21;;;;;;;5.35;4.70;;;17.50;99.90;;;;;;5088963;28;20046;-75
2021/10/20 11:24:52;;;;;;;6.38;4.30;;;17.50;99.90;;;;;;5109156;27;20400;-75
2021/10/20 11:27:25;;;;;;;7.00;4.60;;;17.50;99.90;;;;;;5123927;27;20027;-75
2021/10/20 11:29:53;;;;;;;6.63;4.18;;;17.60;99.90;;;;;;5077096;27;20054;-75
2021/10/20 11:32:21;;;;;;;7.40;4.88;;;17.50;99.90;;;;;;5094077;27;20059;-75
2021/10/20 11:34:49;;;;;;;6.63;4.75;;;17.60;99.90;;;;;;5115685;27;20047;-75
2021/10/20 11:37:17;;;;;;;5.55;4.55;;;17.60;99.90;;;;;;5112946;27;20035;-75
2021/10/20 11:39:51;;;;;;;6.78;5.15;;;17.60;99.90;;;;;;5078390;27;20031;-74
2021/10/20 11:42:17;;;;;;;5.88;4.72;;;17.60;99.90;;;;;;5113534;27;20048;-75
2021/10/20 11:44:44;;;;;;;5.10;3.85;;;17.60;99.90;;;;;;5112031;27;20046;-75
2021/10/20 11:47:14;;;;;;;8.00;5.32;;;17.60;99.90;;;;;;5092621;27;20031;-75
2021/10/20 11:49:49;;;;;;;6.10;4.00;;;17.70;99.90;;;;;;5109469;27;20040;-75
2021/10/20 11:52:18;;;;;;;8.25;4.68;;;17.70;99.90;;;;;;5118346;27;20726;-75
2021/10/20 11:54:45;;;;;;;4.70;3.83;;;17.70;99.90;;;;;;5122899;27;20039;-75
2021/10/20 11:57:15;;;;;;;6.88;5.20;;;17.80;99.90;;;;;;5122532;27;20035;-75
2021/10/20 11:59:42;;;;;;;6.07;3.70;;;17.80;99.90;;;;;;5115241;27;20039;-75
2021/10/20 12:02:09;;;;;;;4.65;4.15;;;17.80;99.90;;;;;;5092665;27;20480;-75
2021/10/20 12:04:38;;;;;;;5.65;3.58;;;17.80;99.90;;;;;;5107260;27;20450;-75
2021/10/20 12:07:06;;;;;;;7.25;4.35;;;17.70;99.90;;;;;;5112883;27;20055;-75
2021/10/20 12:09:37;;;;;;;5.68;4.53;;;17.70;99.90;;;;;;5122539;27;20026;-75
2021/10/20 12:12:05;;;;;;;4.35;3.95;;;17.60;99.90;;;;;;5076912;27;20036;-75
2021/10/20 12:14:34;;;;;;;4.68;3.85;;;17.60;99.90;;;;;;5096161;27;20050;-75
2021/10/20 12:17:01;;;;;;;7.38;4.57;;;17.60;99.90;;;;;;5111005;27;20028;-75
2021/10/20 12:19:33;;;;;;;3.97;3.63;;;17.60;99.90;;;;;;5107656;27;20032;-75
2021/10/20 12:22:03;;;;;;;3.97;3.42;;;17.60;99.90;;;;;;5123452;27;20414;-76
2021/10/20 12:24:41;;;;;;;6.30;4.00;;;17.60;99.90;;;;;;5113139;27;20043;-75
2021/10/20 12:27:09;;;;;;;4.43;3.58;;;17.60;99.90;;;;;;5113680;27;20041;-75
2021/10/20 12:29:39;;;;;;;4.60;3.72;;;17.60;99.90;;;;;;5092628;27;20047;-75
2021/10/20 12:32:31;;;;;;;15.27;5.85;;;17.60;99.90;;;;;;5120262;27;20527;-75
2021/10/20 12:35:03;;;;;;;;;;;17.60;99.90;;;;;;5090725;27;20496;-75
2021/10/20 12:37:30;;;;;;;6.45;4.72;;;17.50;99.90;;;;;;5088848;27;19927;-74
2021/10/20 12:39:58;;;;;;;5.88;4.88;;;17.40;99.90;;;;;;5121952;27;20440;-75
2021/10/20 12:42:24;;;;;;;7.68;4.78;;;17.40;99.90;;;;;;5079428;27;20031;-74
2021/10/20 12:44:59;;;;;;;5.47;4.57;;;17.40;99.90;;;;;;5092614;27;20040;-75
2021/10/20 12:47:28;;;;;;;5.85;4.03;;;17.50;99.90;;;;;;5126763;27;20034;-75
2021/10/20 12:49:55;;;;;;;7.57;6.03;;;17.50;99.90;;;;;;5106563;27;20054;-74
2021/10/20 12:52:25;;;;;;;6.93;5.00;;;17.50;99.90;;;;;;5108967;27;20035;-75